Time;durP1;ratioP1;P1;durP2;ratioP2;P2;SDS_P1;SDS_P2;PMS_P1;PMS_P2;Temp;Humidity;BMP_temperature;BMP_pressure;BME280_temperature;BME280_humidity;BME280_pressure;Samples;Min_cycle;Max_cycle;Signal;HPM_P1;HPM_P2
2023/07/17 00:01:31;;;;;;;12.35;3.47;;;17.20;99.90;;;;;;4973701;28;20118;-62
2023/07/17 00:03:57;;;;;;;13.32;2.85;;;17.20;99.90;;;;;;4974073;28;20092;-61
2023/07/17 00:06:22;;;;;;;8.35;3.20;;;17.30;99.90;;;;;;4973935;28;20061;-58
2023/07/17 00:08:48;;;;;;;10.40;3.17;;;17.30;99.90;;;;;;4974030;28;20031;-62
2023/07/17 00:11:13;;;;;;;9.48;3.20;;;17.40;99.90;;;;;;4973371;28;20038;-62
2023/07/17 00:13:39;;;;;;;13.77;3.45;;;17.40;99.90;;;;;;4973812;28;20031;-62
2023/07/17 00:16:04;;;;;;;15.88;4.05;;;17.50;99.90;;;;;;4973883;28;20019;-62
2023/07/17 00:18:31;;;;;;;8.13;2.65;;;17.50;99.90;;;;;;4973765;28;20033;-60
2023/07/17 00:20:57;;;;;;;18.23;3.28;;;17.60;99.90;;;;;;4973393;28;20467;-62
2023/07/17 00:23:22;;;;;;;11.93;3.55;;;17.80;99.90;;;;;;4973687;28;20111;-61
2023/07/17 00:25:48;;;;;;;7.60;3.53;;;17.90;99.90;;;;;;4973674;28;20026;-61
2023/07/17 00:28:13;;;;;;;9.05;3.33;;;18.00;99.90;;;;;;4973556;28;20039;-61
2023/07/17 00:30:40;;;;;;;9.15;2.65;;;18.00;99.90;;;;;;4973091;28;20507;-62
2023/07/17 00:33:06;;;;;;;15.98;4.32;;;18.00;99.90;;;;;;4973521;28;20026;-62
2023/07/17 00:35:31;;;;;;;14.13;3.78;;;17.90;99.90;;;;;;4973361;28;20081;-62
2023/07/17 00:37:57;;;;;;;8.27;3.45;;;17.90;99.90;;;;;;4973084;28;20029;-62
2023/07/17 00:40:22;;;;;;;9.38;3.58;;;17.90;99.90;;;;;;4972905;28;20069;-61
2023/07/17 00:42:48;;;;;;;7.95;3.08;;;17.90;99.90;;;;;;4973259;28;20077;-62
2023/07/17 00:45:13;;;;;;;10.70;3.00;;;18.00;99.90;;;;;;4973216;28;20556;-60
2023/07/17 00:47:39;;;;;;;12.68;3.53;;;18.00;99.90;;;;;;4973200;28;20139;-63
2023/07/17 00:50:05;;;;;;;8.05;3.17;;;18.10;99.90;;;;;;4973213;28;20035;-61
2023/07/17 00:52:31;;;;;;;10.13;2.75;;;18.20;99.90;;;;;;4972768;28;20504;-61
2023/07/17 00:54:57;;;;;;;6.10;3.22;;;18.30;99.90;;;;;;4973201;28;20034;-62
2023/07/17 00:57:25;;;;;;;11.02;3.88;;;18.30;99.90;;;;;;4973060;28;20114;-62
2023/07/17 00:59:51;;;;;;;13.75;3.13;;;18.40;99.90;;;;;;4973144;28;20050;-62
2023/07/17 01:02:17;;;;;;;12.77;3.97;;;18.40;99.90;;;;;;4972695;28;20027;-62
2023/07/17 01:04:45;;;;;;;15.02;3.65;;;18.50;99.90;;;;;;4972927;28;20033;-62
2023/07/17 01:07:11;;;;;;;6.60;3.08;;;18.50;99.90;;;;;;4973168;28;20113;-62
2023/07/17 01:09:36;;;;;;;11.68;3.55;;;18.50;99.90;;;;;;4972840;28;20062;-62
2023/07/17 01:12:03;;;;;;;8.43;3.53;;;18.50;99.90;;;;;;4972467;28;20030;-62
2023/07/17 01:14:28;;;;;;;12.23;4.03;;;18.60;99.90;;;;;;4972848;28;20470;-62
2023/07/17 01:16:54;;;;;;;7.05;3.33;;;18.60;99.90;;;;;;4972897;28;20102;-62
2023/07/17 01:19:19;;;;;;;8.77;2.65;;;18.60;99.90;;;;;;4973073;28;20503;-62
2023/07/17 01:22:04;;;;;;;10.65;3.03;;;18.60;99.90;;;;;;4972419;28;20031;-60
2023/07/17 01:24:29;;;;;;;7.97;2.60;;;18.60;99.90;;;;;;4972938;28;20030;-60
2023/07/17 01:26:55;;;;;;;7.07;3.25;;;18.60;99.90;;;;;;4972843;28;20432;-61
2023/07/17 01:29:20;;;;;;;10.27;2.75;;;18.60;99.90;;;;;;4972808;28;20511;-62
2023/07/17 01:31:46;;;;;;;5.88;2.97;;;18.50;99.90;;;;;;4972160;28;20038;-61
2023/07/17 01:34:12;;;;;;;4.82;2.47;;;18.50;99.90;;;;;;4972792;28;20476;-62
2023/07/17 01:36:38;;;;;;;7.97;2.97;;;18.50;99.90;;;;;;4971570;28;20421;-62
2023/07/17 01:39:03;;;;;;;4.20;2.70;;;18.50;99.90;;;;;;4972584;28;20177;-61
2023/07/17 01:41:29;;;;;;;5.63;2.92;;;18.50;99.90;;;;;;4972209;28;20031;-61
2023/07/17 01:43:54;;;;;;;5.95;2.38;;;18.50;99.90;;;;;;4972518;28;20407;-62
2023/07/17 01:46:20;;;;;;;12.43;3.20;;;18.60;99.90;;;;;;4972529;28;20022;-63
2023/07/17 01:48:45;;;;;;;7.03;2.88;;;18.50;99.90;;;;;;4972762;28;20388;-62
2023/07/17 01:51:11;;;;;;;6.40;2.38;;;18.50;99.90;;;;;;4976061;28;20086;-62
2023/07/17 01:53:36;;;;;;;5.57;2.38;;;18.40;99.90;;;;;;4976274;28;20524;-61
2023/07/17 01:56:02;;;;;;;6.47;2.55;;;18.40;99.90;;;;;;4976430;28;20027;-62
2023/07/17 01:58:28;;;;;;;10.95;2.72;;;18.40;99.90;;;;;;4976248;28;20489;-61
2023/07/17 02:00:55;;;;;;;8.65;3.05;;;18.30;99.90;;;;;;4976009;28;20030;-62
2023/07/17 02:03:21;;;;;;;6.40;2.47;;;18.30;99.90;;;;;;4976251;28;20033;-63
2023/07/17 02:05:49;;;;;;;5.32;2.33;;;18.20;99.90;;;;;;4976319;28;20041;-59
2023/07/17 02:08:14;;;;;;;5.13;1.95;;;18.20;99.90;;;;;;4976213;28;20031;-61
2023/07/17 02:10:41;;;;;;;8.52;3.33;;;18.00;99.90;;;;;;4975677;28;20027;-61
2023/07/17 02:13:07;;;;;;;6.18;2.17;;;18.00;99.90;;;;;;4976007;28;20522;-62
2023/07/17 02:15:32;;;;;;;5.75;2.45;;;17.90;99.90;;;;;;4975983;28;20030;-58
2023/07/17 02:17:58;;;;;;;7.60;2.58;;;18.00;99.90;;;;;;4976006;28;20117;-62
2023/07/17 02:20:23;;;;;;;9.65;2.50;;;17.90;99.90;;;;;;4975527;28;20103;-61
2023/07/17 02:22:50;;;;;;;10.02;2.60;;;17.80;99.90;;;;;;4975782;28;20041;-61
2023/07/17 02:25:16;;;;;;;5.20;2.15;;;17.90;99.90;;;;;;4975898;28;20038;-62
2023/07/17 02:27:41;;;;;;;5.63;2.55;;;17.90;99.90;;;;;;4975765;28;20039;-61
2023/07/17 02:30:07;;;;;;;10.90;3.22;;;17.90;99.90;;;;;;4975744;28;20400;-63
2023/07/17 02:32:33;;;;;;;7.18;3.08;;;18.00;99.90;;;;;;4975258;28;20067;-62
2023/07/17 02:34:59;;;;;;;8.70;2.53;;;17.90;99.90;;;;;;4975580;28;20030;-62
2023/07/17 02:37:25;;;;;;;8.43;2.47;;;17.90;99.90;;;;;;4975571;28;20027;-62
2023/07/17 02:39:51;;;;;;;9.25;2.55;;;17.80;99.90;;;;;;4975852;28;20030;-63
2023/07/17 02:42:16;;;;;;;7.90;2.92;;;17.80;99.90;;;;;;4975191;28;20093;-62
2023/07/17 02:44:44;;;;;;;6.95;2.78;;;17.80;99.90;;;;;;4974664;28;20122;-62
2023/07/17 02:47:10;;;;;;;5.13;2.47;;;17.70;99.90;;;;;;4973039;28;20030;-62
2023/07/17 02:49:37;;;;;;;7.65;2.42;;;17.60;99.90;;;;;;4974122;28;20034;-62
2023/07/17 02:52:02;;;;;;;9.80;2.25;;;17.40;99.90;;;;;;4973809;28;20126;-62
2023/07/17 02:54:28;;;;;;;6.90;2.65;;;17.30;99.90;;;;;;4974143;28;20102;-60
2023/07/17 02:56:53;;;;;;;5.88;2.60;;;17.30;99.90;;;;;;4974315;28;20107;-61
2023/07/17 02:59:19;;;;;;;9.57;2.88;;;17.30;99.90;;;;;;4974088;28;20051;-61
2023/07/17 03:01:44;;;;;;;8.40;2.25;;;17.30;99.90;;;;;;4973323;28;20066;-63
2023/07/17 03:04:10;;;;;;;7.07;3.03;;;17.30;99.90;;;;;;4973965;28;20061;-61
2023/07/17 03:06:35;;;;;;;7.78;3.17;;;17.20;99.90;;;;;;4973964;28;20085;-62
2023/07/17 03:09:01;;;;;;;9.27;3.15;;;17.00;99.90;;;;;;4974015;28;20633;-62
2023/07/17 03:11:26;;;;;;;4.25;2.08;;;16.90;99.90;;;;;;4973411;28;20045;-62
2023/07/17 03:13:52;;;;;;;4.72;2.38;;;16.80;99.90;;;;;;4974032;28;20038;-60
2023/07/17 03:16:18;;;;;;;8.02;2.88;;;16.90;99.90;;;;;;4973956;28;20365;-60
2023/07/17 03:18:43;;;;;;;7.03;3.05;;;16.70;99.90;;;;;;4973865;28;20023;-59
2023/07/17 03:21:08;;;;;;;7.15;2.58;;;16.70;99.90;;;;;;4973372;28;20388;-62
2023/07/17 03:23:34;;;;;;;4.35;2.17;;;16.70;99.90;;;;;;4973728;28;20090;-62
2023/07/17 03:26:00;;;;;;;6.03;3.08;;;16.70;99.90;;;;;;4973746;28;20089;-63
2023/07/17 03:28:25;;;;;;;6.72;2.70;;;16.70;99.90;;;;;;4973616;28;20039;-62
2023/07/17 03:30:51;;;;;;;6.60;2.60;;;16.60;99.90;;;;;;4973287;28;20027;-62
2023/07/17 03:33:16;;;;;;;7.97;3.05;;;16.60;99.90;;;;;;4973630;28;20030;-61
2023/07/17 03:35:42;;;;;;;8.25;3.45;;;16.70;99.90;;;;;;4973473;28;20038;-59
2023/07/17 03:38:07;;;;;;;6.65;2.97;;;16.70;99.90;;;;;;4973530;28;20477;-63
2023/07/17 03:40:33;;;;;;;6.65;2.80;;;16.60;99.90;;;;;;4973158;28;20137;-61
2023/07/17 03:42:58;;;;;;;7.80;2.80;;;16.60;99.90;;;;;;4973380;28;20384;-62
2023/07/17 03:45:24;;;;;;;4.72;2.80;;;16.60;99.90;;;;;;4936436;28;1102226;-61
2023/07/17 03:47:53;;;;;;;8.57;2.95;;;16.70;99.90;;;;;;4974365;28;20038;-61
2023/07/17 03:50:18;;;;;;;8.32;2.92;;;16.60;99.90;;;;;;4974061;28;20489;-61
2023/07/17 03:52:44;;;;;;;9.45;3.67;;;16.50;99.90;;;;;;4974127;28;20109;-62
2023/07/17 03:55:09;;;;;;;6.70;3.03;;;16.50;99.90;;;;;;4974246;28;20030;-61
2023/07/17 03:57:35;;;;;;;5.15;2.60;;;16.40;99.90;;;;;;4974262;28;20031;-62
2023/07/17 04:00:00;;;;;;;6.88;2.65;;;16.40;99.90;;;;;;4974300;28;20374;-62
2023/07/17 04:02:26;;;;;;;7.22;3.25;;;16.40;99.90;;;;;;4973555;28;20111;-61
2023/07/17 04:04:52;;;;;;;5.75;2.97;;;16.30;99.90;;;;;;4973946;28;20043;-63
2023/07/17 04:07:19;;;;;;;8.27;3.15;;;16.20;99.90;;;;;;4974241;28;20102;-61
2023/07/17 04:09:44;;;;;;;6.72;2.88;;;16.10;99.90;;;;;;4973950;28;20031;-61
2023/07/17 04:12:11;;;;;;;5.63;2.85;;;16.20;99.90;;;;;;4972625;28;20037;-61
2023/07/17 04:14:37;;;;;;;6.40;2.70;;;16.20;99.90;;;;;;4973920;28;20107;-61
2023/07/17 04:17:03;;;;;;;9.13;3.30;;;16.30;99.90;;;;;;4973756;28;20151;-59
2023/07/17 04:19:30;;;;;;;7.95;2.85;;;16.30;99.90;;;;;;4973673;28;20038;-62
2023/07/17 04:21:55;;;;;;;11.38;3.60;;;16.30;99.90;;;;;;4973418;28;20057;-62
2023/07/17 04:24:24;;;;;;;11.18;2.95;;;16.40;99.90;;;;;;4973912;28;20113;-62
2023/07/17 04:26:50;;;;;;;8.38;3.70;;;16.40;99.90;;;;;;4973658;28;20030;-62
2023/07/17 04:29:16;;;;;;;11.48;3.20;;;16.50;99.90;;;;;;4973556;28;20019;-62
2023/07/17 04:31:42;;;;;;;9.20;3.30;;;16.50;99.90;;;;;;4973007;28;20047;-62
2023/07/17 04:34:08;;;;;;;6.35;3.38;;;16.60;99.90;;;;;;4973482;28;20031;-64
2023/07/17 04:36:33;;;;;;;9.15;2.97;;;16.50;99.90;;;;;;4973451;28;20018;-62
2023/07/17 04:38:59;;;;;;;7.47;2.67;;;16.50;99.90;;;;;;4973583;28;20086;-62
2023/07/17 04:41:25;;;;;;;9.85;2.85;;;16.60;99.90;;;;;;4973141;28;20019;-61
2023/07/17 04:43:50;;;;;;;7.05;3.25;;;16.60;99.90;;;;;;4973375;28;20531;-62
2023/07/17 04:46:16;;;;;;;7.38;3.67;;;16.70;99.90;;;;;;4973234;28;20050;-62
2023/07/17 04:48:41;;;;;;;22.75;4.28;;;16.80;99.90;;;;;;4973156;28;20053;-62
2023/07/17 04:51:07;;;;;;;11.63;3.85;;;16.80;99.90;;;;;;4972679;28;20121;-61
2023/07/17 04:53:33;;;;;;;7.30;3.20;;;17.00;99.90;;;;;;4973170;28;20027;-62
2023/07/17 04:55:59;;;;;;;8.13;2.95;;;17.10;99.90;;;;;;4973209;28;20082;-62
2023/07/17 04:58:26;;;;;;;7.75;2.95;;;17.20;99.90;;;;;;4972998;28;20027;-60
2023/07/17 05:00:58;;;;;;;5.90;2.65;;;17.30;99.90;;;;;;4972626;28;20035;-61
2023/07/17 05:03:23;;;;;;;11.25;2.50;;;17.30;99.90;;;;;;4972995;28;20081;-61
2023/07/17 05:05:50;;;;;;;6.05;2.67;;;17.30;99.90;;;;;;4973156;28;20027;-62
2023/07/17 05:08:17;;;;;;;6.20;3.20;;;17.40;99.90;;;;;;4972967;28;20483;-61
2023/07/17 05:10:43;;;;;;;8.80;2.80;;;17.40;99.90;;;;;;4972493;28;20023;-62
2023/07/17 05:13:09;;;;;;;6.03;2.58;;;17.50;99.90;;;;;;4972776;28;20027;-61
2023/07/17 05:15:34;;;;;;;6.53;2.47;;;17.50;99.90;;;;;;4972687;28;20035;-62
2023/07/17 05:18:00;;;;;;;8.18;2.65;;;17.60;99.90;;;;;;4972885;28;20054;-61
2023/07/17 05:20:25;;;;;;;5.68;2.65;;;17.60;99.90;;;;;;4972420;28;20030;-62
2023/07/17 05:22:51;;;;;;;9.82;2.58;;;17.60;99.90;;;;;;4972598;28;20026;-63
2023/07/17 05:25:17;;;;;;;9.05;2.70;;;17.60;99.90;;;;;;4972728;28;20066;-62
2023/07/17 05:27:42;;;;;;;5.25;2.38;;;17.60;99.90;;;;;;4972592;28;20070;-62
2023/07/17 05:30:08;;;;;;;7.20;2.85;;;17.50;99.90;;;;;;4972586;28;20552;-62
2023/07/17 05:32:34;;;;;;;4.63;2.47;;;17.60;99.90;;;;;;4972095;28;20035;-62
2023/07/17 05:35:00;;;;;;;6.57;2.42;;;17.60;99.90;;;;;;4972574;28;20030;-60
2023/07/17 05:37:25;;;;;;;5.85;2.53;;;17.60;99.90;;;;;;4972570;28;20460;-61
2023/07/17 05:39:51;;;;;;;8.18;3.63;;;17.60;99.90;;;;;;4972607;28;20469;-60
2023/07/17 05:42:17;;;;;;;9.48;2.47;;;17.60;99.90;;;;;;4972163;28;20027;-62
2023/07/17 05:44:42;;;;;;;6.82;2.50;;;17.70;99.90;;;;;;4972271;28;20408;-62
2023/07/17 05:47:08;;;;;;;4.97;2.17;;;17.80;99.90;;;;;;4972507;28;20031;-61
2023/07/17 05:49:34;;;;;;;6.38;2.40;;;17.90;99.90;;;;;;4972439;28;20167;-61
2023/07/17 05:51:59;;;;;;;5.88;2.42;;;17.90;99.90;;;;;;4972030;28;20034;-61
2023/07/17 05:54:25;;;;;;;7.07;1.95;;;18.00;99.90;;;;;;4972435;28;20027;-63
2023/07/17 05:56:50;;;;;;;4.97;1.95;;;18.10;99.90;;;;;;4972513;28;20034;-62
2023/07/17 05:59:16;;;;;;;6.93;2.17;;;18.10;99.90;;;;;;4972258;28;20431;-62
2023/07/17 06:01:41;;;;;;;9.65;2.55;;;18.00;99.90;;;;;;4971886;28;20125;-62
2023/07/17 06:04:07;;;;;;;5.68;2.33;;;18.10;99.90;;;;;;4972348;28;20039;-60
2023/07/17 06:06:32;;;;;;;3.90;2.35;;;18.10;99.90;;;;;;4972268;28;20035;-61
2023/07/17 06:09:01;;;;;;;10.10;2.45;;;18.10;99.90;;;;;;4972294;28;20039;-62
2023/07/17 06:11:27;;;;;;;9.13;2.20;;;18.10;99.90;;;;;;4971746;28;20489;-58
2023/07/17 06:13:52;;;;;;;5.82;2.25;;;18.20;99.90;;;;;;4972244;28;20027;-62
2023/07/17 06:16:18;;;;;;;11.25;3.00;;;18.10;99.90;;;;;;4972246;28;20107;-61
2023/07/17 06:18:44;;;;;;;4.53;2.60;;;18.10;99.90;;;;;;4972126;28;20019;-61
2023/07/17 06:21:10;;;;;;;6.43;2.95;;;18.00;99.90;;;;;;4971979;28;20427;-62
2023/07/17 06:23:35;;;;;;;10.48;2.45;;;17.90;99.90;;;;;;4972952;28;20027;-59
2023/07/17 06:26:01;;;;;;;5.60;2.40;;;17.90;99.90;;;;;;4972251;28;20034;-62
2023/07/17 06:28:29;;;;;;;10.10;2.47;;;17.90;99.90;;;;;;4972003;28;20043;-62
2023/07/17 06:30:54;;;;;;;5.40;2.30;;;17.80;99.90;;;;;;4971671;28;20027;-62
2023/07/17 06:33:20;;;;;;;11.50;2.10;;;17.80;99.90;;;;;;4972071;28;20106;-61
2023/07/17 06:35:45;;;;;;;6.35;2.47;;;17.80;99.90;;;;;;4973672;28;20098;-61
2023/07/17 06:38:11;;;;;;;7.60;2.40;;;17.80;99.90;;;;;;4975558;28;20504;-62
2023/07/17 06:40:38;;;;;;;5.78;2.83;;;17.80;99.90;;;;;;4975126;28;20031;-62
2023/07/17 06:43:03;;;;;;;7.80;2.33;;;17.90;99.90;;;;;;4975404;28;20544;-61
2023/07/17 06:45:29;;;;;;;5.53;2.50;;;17.90;99.90;;;;;;4975355;28;20034;-61
2023/07/17 06:47:54;;;;;;;10.52;2.78;;;18.00;99.90;;;;;;4975414;28;20508;-61
2023/07/17 06:50:20;;;;;;;6.18;1.92;;;18.00;99.90;;;;;;4975163;28;20042;-61
2023/07/17 06:52:45;;;;;;;5.20;2.22;;;18.00;99.90;;;;;;4975152;28;20081;-63
2023/07/17 06:55:11;;;;;;;9.25;2.47;;;18.20;99.90;;;;;;4975344;28;20034;-62
2023/07/17 06:57:37;;;;;;;6.03;2.30;;;18.20;99.90;;;;;;4975060;28;20120;-62
2023/07/17 07:00:05;;;;;;;9.45;3.15;;;18.30;99.90;;;;;;4975266;28;20023;-62
2023/07/17 07:02:31;;;;;;;15.20;2.92;;;18.30;99.90;;;;;;4974665;28;20444;-59
2023/07/17 07:04:56;;;;;;;7.63;2.95;;;18.30;99.90;;;;;;4975167;28;20035;-61
2023/07/17 07:07:22;;;;;;;6.65;3.22;;;18.40;99.90;;;;;;4975139;28;20078;-61
2023/07/17 07:09:48;;;;;;;7.43;2.75;;;18.40;99.90;;;;;;4975133;28;20034;-61
2023/07/17 07:12:14;;;;;;;9.85;3.33;;;18.50;99.90;;;;;;4974520;28;20039;-62
2023/07/17 07:14:40;;;;;;;6.15;2.97;;;18.50;99.90;;;;;;4974943;28;20129;-62
2023/07/17 07:17:06;;;;;;;12.45;3.65;;;18.60;99.90;;;;;;4974970;28;20557;-62
2023/07/17 07:19:31;;;;;;;9.02;3.63;;;18.60;99.90;;;;;;4974904;28;20114;-62
2023/07/17 07:21:57;;;;;;;7.25;3.15;;;18.80;99.90;;;;;;4974593;28;20023;-62
2023/07/17 07:24:23;;;;;;;6.43;3.38;;;18.90;99.90;;;;;;4974779;28;20105;-62
2023/07/17 07:26:48;;;;;;;8.93;3.95;;;19.00;99.90;;;;;;4974631;28;20067;-62
2023/07/17 07:29:13;;;;;;;6.40;3.58;;;19.10;99.90;;;;;;4974750;28;20369;-62
2023/07/17 07:31:40;;;;;;;14.52;4.65;;;19.10;99.90;;;;;;4974060;28;20035;-61
2023/07/17 07:34:05;;;;;;;10.93;4.00;;;19.10;99.90;;;;;;4974843;28;20049;-61
2023/07/17 07:36:31;;;;;;;8.77;4.18;;;19.10;99.90;;;;;;4974471;28;20370;-61
2023/07/17 07:38:56;;;;;;;14.02;4.10;;;19.20;99.90;;;;;;4974558;28;20027;-62
2023/07/17 07:41:22;;;;;;;7.25;3.58;;;19.20;99.90;;;;;;4974016;28;20098;-58
2023/07/17 07:43:47;;;;;;;9.60;3.78;;;19.30;99.90;;;;;;4974199;28;20042;-59
2023/07/17 07:46:13;;;;;;;8.65;3.83;;;19.30;99.90;;;;;;4973695;28;20038;-62
2023/07/17 07:48:38;;;;;;;8.25;3.40;;;19.30;99.90;;;;;;4973859;28;20038;-62
2023/07/17 07:51:04;;;;;;;10.85;4.20;;;19.40;99.90;;;;;;4973912;28;20142;-61
2023/07/17 07:53:30;;;;;;;14.05;3.72;;;19.40;99.90;;;;;;4974125;28;20056;-61
2023/07/17 07:55:56;;;;;;;10.18;3.75;;;19.50;99.90;;;;;;4974118;28;20050;-61
2023/07/17 07:58:21;;;;;;;7.00;2.97;;;19.60;99.90;;;;;;4974168;28;20023;-62
2023/07/17 08:00:47;;;;;;;6.18;3.15;;;19.70;99.90;;;;;;4973622;28;20058;-62
2023/07/17 08:03:12;;;;;;;7.05;3.42;;;19.70;99.90;;;;;;4968381;28;20416;-65
2023/07/17 08:05:38;;;;;;;9.55;3.85;;;19.90;99.90;;;;;;4963652;28;20098;-61
2023/07/17 08:08:04;;;;;;;8.55;3.53;;;20.00;99.90;;;;;;4967776;28;20037;-59
2023/07/17 08:10:29;;;;;;;12.68;3.83;;;20.10;99.90;;;;;;4967252;28;20121;-61
2023/07/17 08:12:55;;;;;;;8.77;3.55;;;20.10;99.90;;;;;;4969723;28;20027;-60
2023/07/17 08:15:21;;;;;;;8.93;3.40;;;20.00;99.90;;;;;;4969224;28;20022;-61
2023/07/17 08:17:47;;;;;;;9.25;3.78;;;20.10;99.90;;;;;;4966252;28;20078;-61
2023/07/17 08:20:13;;;;;;;8.05;3.92;;;20.20;99.90;;;;;;4966363;28;20030;-62
2023/07/17 08:22:38;;;;;;;8.75;3.92;;;20.30;99.90;;;;;;4966114;28;20078;-61
2023/07/17 08:25:05;;;;;;;11.85;3.80;;;20.30;99.90;;;;;;4966230;28;20035;-60
2023/07/17 08:27:30;;;;;;;11.70;4.28;;;20.30;99.90;;;;;;4963255;28;20027;-60
2023/07/17 08:29:56;;;;;;;8.02;3.78;;;20.40;99.90;;;;;;4968729;28;20034;-61
2023/07/17 08:32:21;;;;;;;12.85;4.13;;;20.50;99.90;;;;;;4966429;28;20042;-60
2023/07/17 08:34:47;;;;;;;9.20;3.38;;;20.60;99.90;;;;;;4966082;28;20031;-61
2023/07/17 08:37:12;;;;;;;7.72;3.55;;;20.60;99.90;;;;;;4968368;28;20029;-62
2023/07/17 08:39:38;;;;;;;9.85;3.70;;;20.70;99.90;;;;;;4962678;28;20032;-62
2023/07/17 08:42:03;;;;;;;11.45;3.88;;;20.70;99.90;;;;;;4972403;28;20089;-61
2023/07/17 08:44:30;;;;;;;7.97;4.22;;;20.90;99.90;;;;;;4972855;28;20082;-61
2023/07/17 08:46:56;;;;;;;8.10;3.45;;;20.80;99.90;;;;;;4972105;28;20030;-60
2023/07/17 08:49:24;;;;;;;7.75;3.45;;;20.80;99.90;;;;;;4972319;28;20031;-61
2023/07/17 08:51:52;;;;;;;10.98;4.40;;;20.80;99.90;;;;;;4971773;28;20053;-63
2023/07/17 08:54:17;;;;;;;6.85;3.35;;;20.70;99.90;;;;;;4973120;28;20058;-63
2023/07/17 08:56:44;;;;;;;8.65;4.13;;;20.80;99.90;;;;;;4973106;28;20078;-64
2023/07/17 08:59:10;;;;;;;9.77;4.47;;;20.90;99.90;;;;;;4972717;28;20045;-63
2023/07/17 09:01:37;;;;;;;8.95;3.80;;;21.00;99.90;;;;;;4972660;28;20038;-63
2023/07/17 09:04:06;;;;;;;9.63;3.63;;;21.10;99.90;;;;;;4973258;28;20031;-61
2023/07/17 09:06:32;;;;;;;11.40;4.43;;;21.30;99.90;;;;;;4973005;28;20554;-60
2023/07/17 09:08:57;;;;;;;8.85;4.50;;;21.40;99.90;;;;;;4973012;28;20125;-61
2023/07/17 09:11:23;;;;;;;13.60;4.20;;;21.50;99.90;;;;;;4972765;28;20027;-64
2023/07/17 09:13:51;;;;;;;8.93;4.53;;;21.40;99.90;;;;;;4972873;28;20023;-63
2023/07/17 09:16:20;;;;;;;10.30;4.30;;;21.40;99.90;;;;;;4972971;28;20022;-62
2023/07/17 09:18:47;;;;;;;6.95;4.03;;;21.40;99.90;;;;;;4972828;28;20070;-64
2023/07/17 09:21:14;;;;;;;9.82;4.50;;;21.40;99.90;;;;;;4972369;28;20500;-63
2023/07/17 09:23:43;;;;;;;9.45;4.03;;;21.40;99.90;;;;;;4972644;28;20054;-61
2023/07/17 09:26:08;;;;;;;8.73;4.65;;;21.50;99.90;;;;;;4972714;28;20551;-62
2023/07/17 09:28:37;;;;;;;8.18;4.28;;;21.40;99.90;;;;;;4972500;28;20058;-60
2023/07/17 09:31:03;;;;;;;10.48;4.13;;;21.50;99.90;;;;;;4972184;28;20033;-62
2023/07/17 09:33:34;;;;;;;12.20;3.85;;;21.60;99.90;;;;;;4972642;28;20027;-63
2023/07/17 09:36:00;;;;;;;11.32;4.18;;;21.70;99.90;;;;;;4972634;28;20026;-64
2023/07/17 09:38:26;;;;;;;5.57;3.17;;;22.00;99.90;;;;;;4972603;28;20034;-60
2023/07/17 09:40:51;;;;;;;10.65;3.90;;;22.10;99.90;;;;;;4972263;28;20025;-64
2023/07/17 09:43:30;;;;;;;8.35;3.47;;;22.20;99.90;;;;;;4972362;28;20096;-64
2023/07/17 09:46:00;;;;;;;12.63;4.30;;;22.40;99.90;;;;;;4972659;28;20030;-63
2023/07/17 09:48:30;;;;;;;7.25;3.70;;;22.60;99.90;;;;;;4972448;28;20024;-64
2023/07/17 09:50:57;;;;;;;7.55;3.08;;;22.80;99.90;;;;;;4972098;28;20556;-63
2023/07/17 09:53:24;;;;;;;10.65;4.07;;;23.00;99.90;;;;;;4972670;28;20061;-62
2023/07/17 09:55:51;;;;;;;10.90;3.83;;;23.10;99.90;;;;;;4972614;28;20023;-64
2023/07/17 09:58:18;;;;;;;10.38;4.00;;;23.20;99.90;;;;;;4972406;28;20022;-62
2023/07/17 10:00:48;;;;;;;14.32;3.97;;;23.50;99.90;;;;;;4972004;28;20031;-62
2023/07/17 10:03:17;;;;;;;13.18;4.35;;;23.50;99.90;;;;;;4972376;28;20019;-63
2023/07/17 10:05:43;;;;;;;9.27;3.38;;;23.40;99.90;;;;;;4972359;28;20022;-62
2023/07/17 10:08:10;;;;;;;10.23;3.95;;;23.20;99.90;;;;;;4972326;28;20031;-64
2023/07/17 10:10:37;;;;;;;7.57;3.80;;;23.40;99.90;;;;;;4973560;28;20544;-58
2023/07/17 10:13:03;;;;;;;12.27;4.35;;;23.40;99.90;;;;;;4976008;28;20031;-61
2023/07/17 10:15:29;;;;;;;7.80;3.95;;;23.60;99.90;;;;;;4975993;28;20454;-62
2023/07/17 10:17:57;;;;;;;10.88;3.97;;;23.60;99.90;;;;;;4976042;28;20492;-62
2023/07/17 10:20:23;;;;;;;13.70;4.72;;;23.40;99.90;;;;;;4975808;28;20034;-60
2023/07/17 10:22:49;;;;;;;6.95;3.65;;;23.10;99.90;;;;;;4975839;28;20030;-61
2023/07/17 10:25:17;;;;;;;10.15;4.28;;;23.10;99.90;;;;;;4976296;28;20569;-60
2023/07/17 10:28:02;;;;;;;11.20;3.55;;;23.10;99.90;;;;;;4975932;28;20512;-60
2023/07/17 10:30:29;;;;;;;;;;;23.00;99.90;;;;;;4975886;28;20034;-61
2023/07/17 10:33:14;;;;;;;7.43;3.60;;;23.20;99.90;;;;;;4975835;28;19910;-64
2023/07/17 10:35:50;;;;;;;8.88;4.25;;;23.60;99.90;;;;;;4975607;28;20018;-62
2023/07/17 10:38:36;;;;;;;7.57;3.58;;;23.60;99.90;;;;;;4975696;28;20073;-60
2023/07/17 10:41:04;;;;;;;8.00;3.85;;;23.60;99.90;;;;;;4975375;28;20035;-62
2023/07/17 10:43:31;;;;;;;12.93;4.40;;;23.40;99.90;;;;;;4975476;28;20038;-62
2023/07/17 10:45:58;;;;;;;11.43;4.03;;;23.30;99.90;;;;;;4975614;28;20026;-62
2023/07/17 10:48:34;;;;;;;10.07;4.07;;;23.20;99.90;;;;;;4975358;28;20015;-62
2023/07/17 10:50:59;;;;;;;10.55;4.07;;;23.10;99.90;;;;;;4974913;28;20085;-62
2023/07/17 10:53:25;;;;;;;17.75;5.15;;;23.30;99.90;;;;;;4975283;28;20019;-63
2023/07/17 10:55:51;;;;;;;9.70;3.85;;;23.50;99.90;;;;;;4975419;28;20031;-62
2023/07/17 10:58:18;;;;;;;7.22;3.63;;;23.80;99.20;;;;;;4975365;28;20078;-59
2023/07/17 11:00:44;;;;;;;7.45;3.45;;;24.10;99.20;;;;;;4974912;28;20122;-62
2023/07/17 11:03:13;;;;;;;10.05;3.72;;;24.40;98.30;;;;;;4975355;28;20112;-62
2023/07/17 11:05:40;;;;;;;6.93;3.05;;;24.80;96.20;;;;;;4975370;28;20099;-59
2023/07/17 11:08:07;;;;;;;8.35;3.63;;;24.80;95.20;;;;;;4975069;28;20043;-63
2023/07/17 11:10:35;;;;;;;9.98;3.67;;;24.60;95.00;;;;;;4974654;28;20035;-63
2023/07/17 11:13:02;;;;;;;11.10;3.42;;;24.30;95.00;;;;;;4974657;28;20041;-63
2023/07/17 11:15:31;;;;;;;5.97;3.38;;;24.40;95.50;;;;;;4974901;28;20045;-62
2023/07/17 11:17:58;;;;;;;8.25;3.13;;;24.50;94.50;;;;;;4974872;28;20416;-62
2023/07/17 11:20:24;;;;;;;6.20;3.10;;;24.40;93.50;;;;;;4974751;28;20073;-61
2023/07/17 11:22:49;;;;;;;8.70;2.97;;;24.20;93.90;;;;;;4974780;28;20054;-63
2023/07/17 11:25:15;;;;;;;4.70;2.58;;;24.00;93.90;;;;;;4974769;28;20035;-62
2023/07/17 11:27:41;;;;;;;8.32;3.20;;;24.10;94.10;;;;;;4974713;28;20031;-63
2023/07/17 11:30:17;;;;;;;11.00;3.60;;;24.50;94.10;;;;;;4974798;28;20029;-62
2023/07/17 11:32:43;;;;;;;8.02;3.47;;;24.60;93.30;;;;;;4974187;28;20031;-63
2023/07/17 11:35:09;;;;;;;9.65;3.80;;;24.40;93.30;;;;;;4974666;28;20501;-63
2023/07/17 11:37:38;;;;;;;5.82;3.55;;;24.10;93.50;;;;;;4974636;28;20078;-62
2023/07/17 11:40:08;;;;;;;8.80;3.75;;;24.20;93.50;;;;;;4974562;28;20110;-62
2023/07/17 11:42:56;;;;;;;7.53;3.20;;;23.70;94.30;;;;;;4974134;28;20030;-62
2023/07/17 11:45:25;;;;;;;8.05;3.05;;;24.00;93.00;;;;;;4974398;28;20026;-59
2023/07/17 11:47:53;;;;;;;6.60;3.10;;;24.40;93.00;;;;;;4974579;28;20023;-63
2023/07/17 11:50:20;;;;;;;6.75;2.85;;;24.50;91.60;;;;;;4974122;28;20518;-59
2023/07/17 11:52:45;;;;;;;5.53;2.60;;;24.80;91.00;;;;;;4974032;28;20043;-62
2023/07/17 11:55:11;;;;;;;8.45;3.15;;;25.10;90.60;;;;;;4974249;28;20031;-62
2023/07/17 11:57:37;;;;;;;9.43;3.38;;;25.30;90.10;;;;;;4973993;28;20042;-61
2023/07/17 12:00:07;;;;;;;6.28;3.28;;;25.40;89.00;;;;;;4974144;28;20034;-61
2023/07/17 12:02:32;;;;;;;6.03;2.90;;;25.40;89.00;;;;;;4973696;28;20027;-63
2023/07/17 12:05:01;;;;;;;8.18;3.70;;;25.10;89.50;;;;;;4974172;28;20038;-62
2023/07/17 12:07:27;;;;;;;8.93;3.95;;;24.80;89.50;;;;;;4973979;28;20118;-63
2023/07/17 12:09:53;;;;;;;7.40;3.42;;;24.60;89.90;;;;;;4973999;28;20105;-62
2023/07/17 12:12:18;;;;;;;7.93;3.83;;;24.90;90.80;;;;;;4972092;28;20035;-59
2023/07/17 12:14:44;;;;;;;6.68;3.40;;;25.30;90.50;;;;;;4973849;28;20121;-62
2023/07/17 12:17:09;;;;;;;5.07;3.20;;;25.40;90.10;;;;;;4973805;28;20110;-64
2023/07/17 12:19:35;;;;;;;7.30;2.92;;;25.50;87.40;;;;;;4973737;28;20027;-62
2023/07/17 12:22:00;;;;;;;9.57;4.15;;;25.70;88.80;;;;;;4973423;28;20042;-63
2023/07/17 12:24:26;;;;;;;11.32;3.72;;;26.10;90.10;;;;;;4973635;28;20041;-62
2023/07/17 12:26:52;;;;;;;9.85;3.55;;;25.80;89.00;;;;;;4973598;28;20038;-62
2023/07/17 12:29:17;;;;;;;10.88;4.63;;;25.50;89.00;;;;;;4973629;28;20086;-63
2023/07/17 12:31:43;;;;;;;9.85;4.70;;;25.10;90.60;;;;;;4973106;28;20057;-62
2023/07/17 12:34:09;;;;;;;9.65;4.43;;;25.20;91.10;;;;;;4973128;28;20025;-62
2023/07/17 12:36:35;;;;;;;14.25;4.63;;;25.30;91.00;;;;;;4973517;28;20097;-62
2023/07/17 12:39:14;;;;;;;10.35;4.50;;;25.20;91.40;;;;;;4973438;28;20054;-62
2023/07/17 12:41:41;;;;;;;11.18;4.60;;;25.50;91.30;;;;;;4973008;28;20110;-63